Time;durP1;ratioP1;P1;durP2;ratioP2;P2;SDS_P1;SDS_P2;PMS_P1;PMS_P2;Temp;Humidity;BMP_temperature;BMP_pressure;BME280_temperature;BME280_humidity;BME280_pressure;Samples;Min_cycle;Max_cycle;Signal;HPM_P1;HPM_P2
2023/06/21 00:02:07;;;;;;;4.55;4.20;;;23.80;99.90;;;;;;5105988;27;20205;-78
2023/06/21 00:04:34;;;;;;;4.80;4.40;;;23.90;99.90;;;;;;5115993;27;20506;-78
2023/06/21 00:07:01;;;;;;;4.38;3.97;;;23.90;99.90;;;;;;5103694;27;20250;-77
2023/06/21 00:09:31;;;;;;;4.38;3.88;;;23.90;99.90;;;;;;5103519;27;20229;-77
2023/06/21 00:11:58;;;;;;;9.02;4.63;;;23.80;99.90;;;;;;5100989;27;20287;-77
2023/06/21 00:14:25;;;;;;;5.03;4.63;;;23.80;99.90;;;;;;5103940;27;20284;-77
2023/06/21 00:16:52;;;;;;;4.75;4.35;;;23.80;99.90;;;;;;5111683;27;20193;-78
2023/06/21 00:19:19;;;;;;;4.80;4.38;;;23.80;99.90;;;;;;5103004;27;20244;-76
2023/06/21 00:21:46;;;;;;;4.72;4.20;;;23.70;99.90;;;;;;5111664;27;20279;-79
2023/06/21 00:24:13;;;;;;;5.25;4.75;;;23.70;99.90;;;;;;5101182;27;20835;-77
2023/06/21 00:26:41;;;;;;;4.90;4.30;;;23.70;99.90;;;;;;5100417;27;20221;-77
2023/06/21 00:29:08;;;;;;;5.25;4.78;;;23.60;99.90;;;;;;5108890;27;20304;-77
2023/06/21 00:31:35;;;;;;;4.63;4.25;;;23.50;99.90;;;;;;5107352;27;20297;-77
2023/06/21 00:34:02;;;;;;;4.68;4.28;;;23.50;99.90;;;;;;5101522;27;20690;-77
2023/06/21 00:36:29;;;;;;;5.20;4.30;;;23.40;99.90;;;;;;5103453;27;20213;-77
2023/06/21 00:38:57;;;;;;;4.35;4.05;;;23.40;99.90;;;;;;5106402;27;20220;-77
2023/06/21 00:41:24;;;;;;;4.72;4.32;;;23.40;99.90;;;;;;5106055;27;20196;-77
2023/06/21 00:43:52;;;;;;;5.28;4.25;;;23.30;99.90;;;;;;5105189;27;20197;-78
2023/06/21 00:46:19;;;;;;;4.68;4.30;;;23.30;99.90;;;;;;5104152;27;20194;-76
2023/06/21 00:48:46;;;;;;;5.60;4.70;;;23.20;99.90;;;;;;5103544;27;20269;-76
2023/06/21 00:51:14;;;;;;;5.28;4.80;;;23.30;99.90;;;;;;5104401;27;20200;-77
2023/06/21 00:53:41;;;;;;;4.85;4.45;;;23.20;99.90;;;;;;5103230;27;20291;-77
2023/06/21 00:56:09;;;;;;;4.88;4.47;;;23.20;99.90;;;;;;5107426;27;20254;-76
2023/06/21 00:58:36;;;;;;;5.00;4.60;;;23.20;99.90;;;;;;5111264;27;20647;-77
2023/06/21 01:01:04;;;;;;;4.97;4.55;;;23.20;99.90;;;;;;5107612;27;20235;-78
2023/06/21 01:03:31;;;;;;;5.90;5.10;;;23.20;99.90;;;;;;5106768;27;20246;-78
2023/06/21 01:06:10;;;;;;;4.80;4.40;;;23.20;99.90;;;;;;5112363;27;20284;-77
2023/06/21 01:08:46;;;;;;;5.00;4.60;;;23.20;99.90;;;;;;5103837;27;20220;-75
2023/06/21 01:11:22;;;;;;;5.10;4.70;;;23.30;99.90;;;;;;5104125;27;20353;-75
2023/06/21 01:14:04;;;;;;;4.53;4.20;;;23.30;99.90;;;;;;5109008;27;20284;-76
2023/06/21 01:16:39;;;;;;;4.53;4.13;;;23.20;99.90;;;;;;5110591;27;20200;-76
2023/06/21 01:19:08;;;;;;;4.47;4.10;;;23.20;99.90;;;;;;5109475;27;20209;-75
2023/06/21 01:21:37;;;;;;;4.57;4.28;;;23.10;99.90;;;;;;5111635;27;20228;-76
2023/06/21 01:24:14;;;;;;;4.80;4.40;;;23.10;99.90;;;;;;5104945;27;20204;-78
2023/06/21 01:27:01;;;;;;;4.90;4.50;;;23.10;99.90;;;;;;5111077;27;20203;-76
2023/06/21 01:29:33;;;;;;;4.28;3.97;;;23.10;99.90;;;;;;5099599;27;20303;-76
2023/06/21 01:32:02;;;;;;;5.20;4.72;;;23.10;99.90;;;;;;5106934;27;20671;-76
2023/06/21 01:34:30;;;;;;;4.68;4.28;;;23.10;99.90;;;;;;5105753;27;20291;-77
2023/06/21 01:36:58;;;;;;;5.18;4.70;;;23.10;99.90;;;;;;5108085;27;20244;-77
2023/06/21 01:39:27;;;;;;;5.05;4.65;;;23.00;99.90;;;;;;5104168;27;20217;-77
2023/06/21 01:41:54;;;;;;;5.25;4.65;;;23.10;99.90;;;;;;5111914;27;20196;-77
2023/06/21 01:44:22;;;;;;;4.97;4.57;;;23.10;99.90;;;;;;5102373;27;20320;-78
2023/06/21 01:46:52;;;;;;;5.60;5.20;;;23.10;99.90;;;;;;5096239;28;20286;-75
2023/06/21 01:49:19;;;;;;;5.18;4.78;;;23.10;99.90;;;;;;5098526;27;20300;-76
2023/06/21 01:51:47;;;;;;;5.75;4.63;;;23.10;99.90;;;;;;5098981;28;20789;-75
2023/06/21 01:54:15;;;;;;;5.78;5.28;;;23.00;99.90;;;;;;5104834;27;20193;-77
2023/06/21 01:56:46;;;;;;;4.68;4.38;;;23.00;99.90;;;;;;5115318;28;20196;-75
2023/06/21 01:59:14;;;;;;;4.97;4.57;;;22.90;99.90;;;;;;5108411;28;20700;-75
2023/06/21 02:01:50;;;;;;;5.10;4.63;;;22.90;99.90;;;;;;5096544;28;20811;-75
2023/06/21 02:04:19;;;;;;;5.47;4.97;;;22.80;99.90;;;;;;5097765;28;20215;-75
2023/06/21 02:06:48;;;;;;;5.13;4.72;;;22.80;99.90;;;;;;5097072;28;20258;-78
2023/06/21 02:09:15;;;;;;;5.18;4.68;;;22.80;99.90;;;;;;5103414;27;20225;-77
2023/06/21 02:11:43;;;;;;;5.28;4.88;;;22.70;99.90;;;;;;5105900;27;20284;-78
2023/06/21 02:14:11;;;;;;;5.60;4.97;;;22.70;99.90;;;;;;5103305;27;20258;-77
2023/06/21 02:16:38;;;;;;;5.40;4.93;;;22.70;99.90;;;;;;5102755;27;20205;-77
2023/06/21 02:19:05;;;;;;;5.47;4.90;;;22.70;99.90;;;;;;5104601;27;20299;-77
2023/06/21 02:21:33;;;;;;;5.85;5.30;;;22.70;99.90;;;;;;5104906;27;20213;-77
2023/06/21 02:24:01;;;;;;;5.32;4.93;;;22.70;99.90;;;;;;5103886;27;20799;-77
2023/06/21 02:26:28;;;;;;;5.63;5.13;;;22.70;99.90;;;;;;5107695;27;20249;-77
2023/06/21 02:28:55;;;;;;;5.68;5.07;;;22.70;99.90;;;;;;5103587;27;20713;-78
2023/06/21 02:31:22;;;;;;;5.65;5.15;;;22.80;99.90;;;;;;5102346;27;20225;-76
2023/06/21 02:33:49;;;;;;;4.97;4.57;;;22.80;99.90;;;;;;5102127;27;20197;-77
2023/06/21 02:36:16;;;;;;;5.75;5.25;;;22.80;99.90;;;;;;5099473;27;20201;-76
2023/06/21 02:38:44;;;;;;;5.80;5.28;;;22.80;99.90;;;;;;5106092;27;20272;-77
2023/06/21 02:41:11;;;;;;;5.45;4.95;;;22.80;99.90;;;;;;5102087;27;20335;-76
2023/06/21 02:43:38;;;;;;;5.45;4.95;;;22.80;99.90;;;;;;5100698;27;20228;-77
2023/06/21 02:46:05;;;;;;;5.20;4.80;;;22.80;99.90;;;;;;5102499;27;20223;-77
2023/06/21 02:48:32;;;;;;;5.90;5.40;;;22.80;99.90;;;;;;5105457;27;20228;-77
2023/06/21 02:50:59;;;;;;;5.47;5.05;;;22.80;99.90;;;;;;5101330;27;20686;-76
2023/06/21 02:53:27;;;;;;;5.68;5.18;;;22.80;99.90;;;;;;5101954;27;20295;-75
2023/06/21 02:55:55;;;;;;;5.93;5.43;;;22.80;99.90;;;;;;5104376;27;20550;-77
2023/06/21 02:58:22;;;;;;;5.50;5.10;;;22.70;99.90;;;;;;5100050;27;20719;-77
2023/06/21 03:00:49;;;;;;;5.28;4.88;;;22.70;99.90;;;;;;5109135;27;20246;-76
2023/06/21 03:03:16;;;;;;;5.18;4.68;;;22.70;99.90;;;;;;5102447;27;20262;-75
2023/06/21 03:05:43;;;;;;;5.28;4.88;;;22.60;99.90;;;;;;5098912;27;20284;-76
2023/06/21 03:08:11;;;;;;;5.97;5.47;;;22.70;99.90;;;;;;5101800;27;20247;-76
2023/06/21 03:10:39;;;;;;;5.82;5.32;;;22.60;99.90;;;;;;5104093;27;20563;-76
2023/06/21 03:13:07;;;;;;;5.63;5.07;;;22.70;99.90;;;;;;5098880;27;20216;-76
2023/06/21 03:15:34;;;;;;;5.20;4.80;;;22.70;99.90;;;;;;5101800;27;20280;-76
2023/06/21 03:18:01;;;;;;;6.47;5.10;;;22.60;99.90;;;;;;5101911;27;20771;-75
2023/06/21 03:20:28;;;;;;;5.57;5.07;;;22.60;99.90;;;;;;5104496;27;20204;-76
2023/06/21 03:22:55;;;;;;;6.15;5.63;;;22.60;99.90;;;;;;5102655;27;20260;-76
2023/06/21 03:25:22;;;;;;;5.63;5.13;;;22.60;99.90;;;;;;5104001;27;20573;-76
2023/06/21 03:27:49;;;;;;;5.82;5.30;;;22.50;99.90;;;;;;5102739;27;20221;-76
2023/06/21 03:30:17;;;;;;;5.55;5.05;;;22.50;99.90;;;;;;5106359;27;20233;-76
2023/06/21 03:32:46;;;;;;;5.65;5.15;;;22.50;99.90;;;;;;5100576;27;20305;-77
2023/06/21 03:35:14;;;;;;;5.85;5.43;;;22.50;99.90;;;;;;5101283;27;20787;-76
2023/06/21 03:37:41;;;;;;;6.80;5.10;;;22.50;99.90;;;;;;5099259;27;20204;-77
2023/06/21 03:40:11;;;;;;;7.05;5.90;;;22.50;99.90;;;;;;5096700;27;20751;-77
2023/06/21 03:42:39;;;;;;;5.90;5.40;;;22.40;99.90;;;;;;5100154;27;20201;-78
2023/06/21 03:45:08;;;;;;;6.35;5.85;;;22.40;99.90;;;;;;5100721;27;20205;-77
2023/06/21 03:47:38;;;;;;;5.75;5.25;;;22.40;99.90;;;;;;5102615;27;20201;-77
2023/06/21 03:50:06;;;;;;;6.10;5.70;;;22.40;99.90;;;;;;5103456;27;20236;-77
2023/06/21 03:52:33;;;;;;;5.72;5.22;;;22.40;99.90;;;;;;5103474;27;20200;-78
2023/06/21 03:55:00;;;;;;;5.90;5.40;;;22.30;99.90;;;;;;5098998;27;20196;-76
2023/06/21 03:57:27;;;;;;;5.97;5.38;;;22.30;99.90;;;;;;5101063;27;20206;-77
2023/06/21 03:59:54;;;;;;;6.00;5.40;;;22.30;99.90;;;;;;5101325;27;20192;-77
2023/06/21 04:02:21;;;;;;;5.97;5.47;;;22.30;99.90;;;;;;5095187;27;21431;-77
2023/06/21 04:04:50;;;;;;;5.50;5.00;;;22.40;99.90;;;;;;5102175;27;20207;-77
2023/06/21 04:07:19;;;;;;;5.68;5.10;;;22.40;99.90;;;;;;5103642;27;20201;-77
2023/06/21 04:09:46;;;;;;;5.65;5.15;;;22.40;99.90;;;;;;5101454;27;20225;-77
2023/06/21 04:12:13;;;;;;;5.63;5.15;;;22.40;99.90;;;;;;5101479;27;20229;-76
2023/06/21 04:14:40;;;;;;;6.00;5.50;;;22.50;99.90;;;;;;5102962;27;20308;-76
2023/06/21 04:17:07;;;;;;;5.70;5.20;;;22.50;99.90;;;;;;5100483;27;20714;-76
2023/06/21 04:19:34;;;;;;;5.60;5.10;;;22.60;99.90;;;;;;5099550;27;20315;-76
2023/06/21 04:22:03;;;;;;;5.43;4.95;;;22.60;99.90;;;;;;5101904;27;20259;-77
2023/06/21 04:24:30;;;;;;;6.00;5.40;;;22.70;99.90;;;;;;5094625;27;20201;-77
2023/06/21 04:26:58;;;;;;;5.80;5.30;;;22.80;99.90;;;;;;5104672;27;20197;-76
2023/06/21 04:29:26;;;;;;;5.93;5.43;;;22.80;99.90;;;;;;5098886;27;20229;-77
2023/06/21 04:31:53;;;;;;;6.47;5.88;;;22.90;99.90;;;;;;5099747;27;20752;-73
2023/06/21 04:34:20;;;;;;;5.68;5.22;;;22.90;99.90;;;;;;5101199;27;20467;-75
2023/06/21 04:36:48;;;;;;;6.07;5.57;;;22.90;99.90;;;;;;5103024;27;20222;-78
2023/06/21 04:39:18;;;;;;;6.55;5.97;;;23.00;99.90;;;;;;5100140;27;20268;-80
2023/06/21 04:41:46;;;;;;;6.28;5.75;;;23.10;99.90;;;;;;5102020;27;20252;-78
2023/06/21 04:44:17;;;;;;;6.18;5.65;;;23.10;99.90;;;;;;5102905;27;20203;-77
2023/06/21 04:46:45;;;;;;;7.28;6.32;;;23.20;99.90;;;;;;5100048;27;20198;-78
2023/06/21 04:49:12;;;;;;;6.53;5.88;;;23.30;99.90;;;;;;5099223;27;20579;-78
2023/06/21 04:51:39;;;;;;;6.63;6.03;;;23.40;99.90;;;;;;5099024;27;20239;-77
2023/06/21 04:54:07;;;;;;;6.70;6.10;;;23.50;99.90;;;;;;5102274;27;20205;-79
2023/06/21 04:56:36;;;;;;;6.53;5.93;;;23.50;99.90;;;;;;5098996;27;20192;-78
2023/06/21 04:59:03;;;;;;;8.05;7.28;;;23.60;99.90;;;;;;5101142;27;20220;-77
2023/06/21 05:01:31;;;;;;;7.35;6.68;;;23.60;99.90;;;;;;5097621;27;20205;-77
2023/06/21 05:03:58;;;;;;;7.63;6.80;;;23.60;99.90;;;;;;5100993;27;20709;-79
2023/06/21 05:06:26;;;;;;;7.20;6.57;;;23.60;99.90;;;;;;5099665;27;20192;-78
2023/06/21 05:08:53;;;;;;;7.10;6.50;;;23.60;99.90;;;;;;5101371;27;20220;-78
2023/06/21 05:11:20;;;;;;;7.55;6.88;;;23.60;99.90;;;;;;5097215;27;20284;-79
2023/06/21 05:13:48;;;;;;;6.63;6.03;;;23.50;99.90;;;;;;5100860;27;20204;-78
2023/06/21 05:16:15;;;;;;;7.50;6.80;;;23.60;99.90;;;;;;5102084;27;20683;-78
2023/06/21 05:18:43;;;;;;;6.18;5.68;;;23.80;99.90;;;;;;5100243;27;20316;-78
2023/06/21 05:21:11;;;;;;;7.18;6.57;;;24.00;99.90;;;;;;5096947;27;20206;-77
2023/06/21 05:23:38;;;;;;;7.25;6.65;;;24.00;99.90;;;;;;5098152;27;20835;-78
2023/06/21 05:26:05;;;;;;;7.72;7.13;;;24.00;99.90;;;;;;5101016;27;20246;-79
2023/06/21 05:28:33;;;;;;;8.57;7.75;;;24.10;99.90;;;;;;5100828;27;20252;-78
2023/06/21 05:31:02;;;;;;;7.90;7.20;;;24.10;99.90;;;;;;5095817;27;20318;-76
2023/06/21 05:33:29;;;;;;;8.52;7.72;;;24.00;99.90;;;;;;5098097;27;20204;-75
2023/06/21 05:35:56;;;;;;;9.02;7.88;;;24.00;99.90;;;;;;5097692;27;20665;-78
2023/06/21 05:38:23;;;;;;;10.13;7.47;;;24.10;99.90;;;;;;5101439;27;20216;-79
2023/06/21 05:40:50;;;;;;;8.48;7.78;;;24.30;99.90;;;;;;5100224;27;20194;-78
2023/06/21 05:43:17;;;;;;;8.52;7.82;;;24.30;99.90;;;;;;5108697;27;20200;-77
2023/06/21 05:45:44;;;;;;;7.80;7.10;;;24.40;99.90;;;;;;5097444;28;20229;-75
2023/06/21 05:48:12;;;;;;;8.57;7.55;;;24.40;99.90;;;;;;5101181;27;20875;-76
2023/06/21 05:50:39;;;;;;;8.13;7.53;;;24.40;99.90;;;;;;5097060;27;20308;-78
2023/06/21 05:53:06;;;;;;;8.93;8.13;;;24.40;99.90;;;;;;5099139;27;20200;-78
2023/06/21 05:55:33;;;;;;;8.57;7.88;;;24.40;99.90;;;;;;5098939;28;20258;-78
2023/06/21 05:58:00;;;;;;;8.98;8.18;;;24.40;99.90;;;;;;5097794;28;20227;-77
2023/06/21 06:00:30;;;;;;;8.40;7.70;;;24.40;99.90;;;;;;5100000;27;20258;-77
2023/06/21 06:02:57;;;;;;;9.35;8.40;;;24.30;99.90;;;;;;5099437;28;20196;-77
2023/06/21 06:05:25;;;;;;;8.60;7.65;;;24.30;99.90;;;;;;5098491;28;20272;-78
2023/06/21 06:07:52;;;;;;;8.35;7.55;;;24.20;99.90;;;;;;5102546;28;20969;-77
2023/06/21 06:10:19;;;;;;;8.95;8.15;;;24.30;99.90;;;;;;5100188;28;20218;-77
2023/06/21 06:12:46;;;;;;;8.93;8.10;;;24.40;99.90;;;;;;5102526;27;20296;-76
2023/06/21 06:15:12;;;;;;;9.30;8.45;;;24.70;99.90;;;;;;5098506;28;20292;-77
2023/06/21 06:17:40;;;;;;;9.88;8.63;;;24.80;99.90;;;;;;5097326;28;20312;-77
2023/06/21 06:20:08;;;;;;;9.30;8.50;;;25.00;99.90;;;;;;5094766;28;20288;-77
2023/06/21 06:22:36;;;;;;;8.90;8.10;;;25.20;99.90;;;;;;5098053;28;20305;-77
2023/06/21 06:25:03;;;;;;;9.30;8.40;;;25.20;99.90;;;;;;5095106;28;20734;-78
2023/06/21 06:27:30;;;;;;;9.15;8.25;;;25.10;99.90;;;;;;5096730;28;20201;-78
2023/06/21 06:29:57;;;;;;;10.02;9.02;;;25.00;99.90;;;;;;5099033;28;20300;-78
2023/06/21 06:32:26;;;;;;;11.43;9.13;;;25.10;99.90;;;;;;5097617;27;20279;-77
2023/06/21 06:34:54;;;;;;;9.40;8.50;;;25.10;99.90;;;;;;5096134;28;20204;-78
2023/06/21 06:37:23;;;;;;;9.43;7.97;;;25.00;99.90;;;;;;5098656;28;20204;-77
2023/06/21 06:39:52;;;;;;;9.18;8.27;;;25.10;99.90;;;;;;5095548;28;20251;-77
2023/06/21 06:42:19;;;;;;;9.98;8.95;;;25.30;99.90;;;;;;5097681;28;20250;-78
2023/06/21 06:44:46;;;;;;;10.00;9.10;;;25.40;99.90;;;;;;5096664;28;20359;-77
2023/06/21 06:47:13;;;;;;;11.68;9.13;;;25.40;99.90;;;;;;5092133;27;20205;-78
2023/06/21 06:49:40;;;;;;;10.88;9.60;;;25.40;99.90;;;;;;5092414;28;20320;-78
2023/06/21 06:52:08;;;;;;;10.60;9.70;;;25.40;99.90;;;;;;5095015;28;20288;-78
2023/06/21 06:54:35;;;;;;;11.25;10.15;;;25.50;99.90;;;;;;5098672;27;20284;-78
2023/06/21 06:57:03;;;;;;;10.65;9.65;;;25.50;99.90;;;;;;5099099;27;20208;-77
2023/06/21 06:59:30;;;;;;;10.68;9.63;;;25.40;99.90;;;;;;5097699;27;20442;-77
2023/06/21 07:01:57;;;;;;;10.18;9.23;;;25.20;99.90;;;;;;5094407;27;20289;-79
2023/06/21 07:04:25;;;;;;;10.55;9.65;;;25.20;99.90;;;;;;5099687;27;20228;-78
2023/06/21 07:06:52;;;;;;;9.80;8.95;;;25.20;99.90;;;;;;5096722;27;20204;-77
2023/06/21 07:09:19;;;;;;;9.70;8.80;;;25.40;99.90;;;;;;5097312;27;20685;-79
2023/06/21 07:11:46;;;;;;;9.70;8.90;;;25.70;99.90;;;;;;5098593;27;20204;-77
2023/06/21 07:14:14;;;;;;;10.98;9.90;;;25.80;99.90;;;;;;5099106;27;20312;-77
2023/06/21 07:16:43;;;;;;;10.68;9.68;;;26.00;99.90;;;;;;5095798;27;20266;-77
2023/06/21 07:19:09;;;;;;;10.07;9.18;;;26.00;99.90;;;;;;5098149;27;20293;-77
2023/06/21 07:21:39;;;;;;;10.27;9.27;;;26.00;99.90;;;;;;5101174;27;20236;-77
2023/06/21 07:24:06;;;;;;;10.15;9.25;;;26.00;99.90;;;;;;5096322;27;20200;-78
2023/06/21 07:26:33;;;;;;;10.13;9.13;;;26.20;99.90;;;;;;5102457;27;20283;-78
2023/06/21 07:29:00;;;;;;;9.52;8.63;;;26.30;99.90;;;;;;5097975;27;20601;-79
2023/06/21 07:31:30;;;;;;;8.57;7.78;;;26.40;99.90;;;;;;5094038;27;20313;-78
2023/06/21 07:33:58;;;;;;;11.10;8.90;;;26.50;99.90;;;;;;5104375;27;20201;-78
2023/06/21 07:36:25;;;;;;;10.85;8.88;;;26.60;99.90;;;;;;5100717;27;20265;-78
2023/06/21 07:38:52;;;;;;;9.77;8.88;;;26.70;99.90;;;;;;5097251;27;20822;-79
2023/06/21 07:41:19;;;;;;;9.82;8.93;;;26.80;99.90;;;;;;5096285;27;20980;-78
2023/06/21 07:43:46;;;;;;;9.68;8.18;;;26.80;99.90;;;;;;5096384;27;20205;-77
2023/06/21 07:46:13;;;;;;;10.02;9.18;;;26.90;99.90;;;;;;5094745;27;20200;-77
2023/06/21 07:48:42;;;;;;;9.75;8.75;;;27.00;99.90;;;;;;5099562;27;20724;-78
2023/06/21 07:51:09;;;;;;;10.35;9.32;;;27.00;99.90;;;;;;5099434;27;20577;-77
2023/06/21 07:53:36;;;;;;;12.27;11.07;;;27.10;99.90;;;;;;5093217;27;20208;-78
2023/06/21 07:56:03;;;;;;;10.57;9.48;;;27.10;99.90;;;;;;5095759;27;20683;-80
2023/06/21 07:58:30;;;;;;;10.07;9.18;;;27.10;99.90;;;;;;5099477;27;20647;-77
2023/06/21 08:00:57;;;;;;;10.55;9.07;;;27.30;99.90;;;;;;5096472;27;21073;-78
2023/06/21 08:03:24;;;;;;;10.85;9.77;;;27.30;99.90;;;;;;5098206;27;20200;-77
2023/06/21 08:05:52;;;;;;;10.63;9.63;;;27.40;99.90;;;;;;5096569;27;20197;-77
2023/06/21 08:08:20;;;;;;;10.93;9.93;;;27.50;99.90;;;;;;5098021;27;20792;-76
2023/06/21 08:10:47;;;;;;;9.70;8.70;;;27.50;99.90;;;;;;5095956;27;20221;-77
2023/06/21 08:13:17;;;;;;;10.02;9.02;;;27.60;99.90;;;;;;5094805;27;20693;-77
2023/06/21 08:15:44;;;;;;;11.98;9.40;;;27.50;99.90;;;;;;5096746;27;20196;-78
2023/06/21 08:18:11;;;;;;;9.65;8.70;;;27.60;99.90;;;;;;5089189;27;20352;-76
2023/06/21 08:20:40;;;;;;;9.98;9.07;;;27.70;99.90;;;;;;5094600;27;20283;-77
2023/06/21 08:23:09;;;;;;;10.05;8.98;;;28.00;99.90;;;;;;5091295;27;20212;-77
2023/06/21 08:25:36;;;;;;;10.20;9.18;;;28.20;99.90;;;;;;5094320;27;21781;-75
2023/06/21 08:28:03;;;;;;;12.13;9.80;;;28.30;99.90;;;;;;5091051;27;20217;-77
2023/06/21 08:30:31;;;;;;;10.57;9.48;;;28.40;99.90;;;;;;5093451;27;20635;-77
2023/06/21 08:32:58;;;;;;;10.43;9.52;;;28.50;99.90;;;;;;5090384;27;20201;-76
2023/06/21 08:35:25;;;;;;;11.10;9.68;;;28.50;99.90;;;;;;5090349;27;20213;-77
2023/06/21 08:37:55;;;;;;;10.27;9.32;;;28.60;99.90;;;;;;5095326;27;20233;-76
2023/06/21 08:40:26;;;;;;;10.63;9.10;;;28.70;99.90;;;;;;5096071;27;20782;-77
2023/06/21 08:42:53;;;;;;;10.50;9.40;;;28.90;99.90;;;;;;5093166;27;20893;-77
2023/06/21 08:45:21;;;;;;;10.48;9.50;;;29.00;99.90;;;;;;5092831;27;20895;-77
2023/06/21 08:47:49;;;;;;;10.70;9.65;;;29.10;99.90;;;;;;5090499;27;20217;-76
2023/06/21 08:50:17;;;;;;;10.10;9.10;;;29.10;99.90;;;;;;5093420;27;20316;-76
2023/06/21 08:52:46;;;;;;;10.38;9.40;;;29.10;99.90;;;;;;5092033;27;20193;-75
2023/06/21 08:55:18;;;;;;;11.40;10.40;;;29.10;99.90;;;;;;5098290;27;20201;-77
2023/06/21 08:57:51;;;;;;;11.82;10.60;;;29.10;99.90;;;;;;5092362;27;21222;-75
2023/06/21 09:00:22;;;;;;;10.68;9.57;;;29.20;99.90;;;;;;5091854;27;20659;-77
2023/06/21 09:02:57;;;;;;;10.02;9.02;;;29.20;99.90;;;;;;5090118;27;20222;-76
2023/06/21 09:05:29;;;;;;;9.52;8.70;;;29.20;99.90;;;;;;5096478;27;20283;-76
2023/06/21 09:07:58;;;;;;;10.02;9.13;;;29.30;99.90;;;;;;5091835;27;20323;-76
2023/06/21 09:10:27;;;;;;;10.45;9.45;;;29.40;99.90;;;;;;5091772;28;20216;-76
2023/06/21 09:12:57;;;;;;;10.32;9.43;;;29.50;99.90;;;;;;5092797;27;20909;-78
2023/06/21 09:15:24;;;;;;;9.93;9.02;;;29.60;99.90;;;;;;5092827;27;20219;-77
2023/06/21 09:17:53;;;;;;;11.07;9.90;;;29.80;99.90;;;;;;5092875;27;20229;-76
2023/06/21 09:20:20;;;;;;;10.40;9.27;;;29.90;99.90;;;;;;5092299;27;20205;-76
2023/06/21 09:22:47;;;;;;;9.82;8.93;;;29.90;99.90;;;;;;5092209;28;20208;-76
2023/06/21 09:25:14;;;;;;;11.90;9.45;;;29.90;99.90;;;;;;5096850;27;20252;-76
2023/06/21 09:27:41;;;;;;;12.13;9.45;;;29.90;99.90;;;;;;5103034;27;20258;-76
2023/06/21 09:30:10;;;;;;;12.80;9.27;;;29.90;99.90;;;;;;5094647;27;20269;-76
2023/06/21 09:32:38;;;;;;;10.23;8.82;;;29.90;99.90;;;;;;5091185;28;20634;-76
2023/06/21 09:35:06;;;;;;;11.20;10.15;;;30.10;99.90;;;;;;5095778;27;20292;-76
2023/06/21 09:37:34;;;;;;;9.80;8.90;;;30.10;99.90;;;;;;5091136;27;20624;-74
2023/06/21 09:40:01;;;;;;;10.27;9.30;;;30.30;99.90;;;;;;5095109;27;20291;-76
2023/06/21 09:42:29;;;;;;;10.63;8.80;;;30.10;99.90;;;;;;5092487;28;20295;-76
2023/06/21 09:44:56;;;;;;;9.57;8.57;;;30.10;99.90;;;;;;5094363;27;20196;-75
2023/06/21 09:47:29;;;;;;;9.18;8.38;;;30.30;99.90;;;;;;5093524;28;20644;-76
2023/06/21 09:49:57;;;;;;;11.02;8.93;;;30.60;99.90;;;;;;5092543;28;20287;-75
2023/06/21 09:52:25;;;;;;;11.10;8.73;;;30.70;99.90;;;;;;5094854;28;20208;-77
2023/06/21 09:54:51;;;;;;;9.95;7.75;;;30.70;99.90;;;;;;5092932;28;20562;-76
2023/06/21 09:57:18;;;;;;;9.55;8.55;;;30.50;99.90;;;;;;5094227;28;20296;-76
2023/06/21 09:59:49;;;;;;;10.02;9.10;;;30.60;99.90;;;;;;5088906;28;20255;-75
2023/06/21 10:02:16;;;;;;;10.75;8.95;;;30.70;99.90;;;;;;5096171;27;20196;-75
2023/06/21 10:04:45;;;;;;;8.63;7.88;;;30.90;99.90;;;;;;5097451;27;20873;-76
2023/06/21 10:07:14;;;;;;;10.27;9.25;;;30.90;99.90;;;;;;5094492;28;20246;-77
2023/06/21 10:09:42;;;;;;;9.05;8.18;;;31.00;99.90;;;;;;5092020;28;20231;-76
2023/06/21 10:12:11;;;;;;;10.77;8.23;;;31.20;99.90;;;;;;5091850;27;20327;-77
2023/06/21 10:14:40;;;;;;;8.88;8.05;;;31.20;99.90;;;;;;5092016;28;20207;-76
2023/06/21 10:17:08;;;;;;;8.88;8.00;;;31.20;99.90;;;;;;5091690;28;20692;-76
2023/06/21 10:19:36;;;;;;;8.05;7.35;;;31.40;99.90;;;;;;5094599;28;20299;-77
2023/06/21 10:22:08;;;;;;;8.95;8.00;;;31.50;99.90;;;;;;5092131;28;20291;-77
2023/06/21 10:24:40;;;;;;;8.70;7.93;;;31.30;99.90;;;;;;5092716;27;20221;-77
2023/06/21 10:27:08;;;;;;;8.07;7.38;;;31.20;99.90;;;;;;5094984;27;20261;-76
2023/06/21 10:29:35;;;;;;;9.45;7.80;;;31.20;99.90;;;;;;5094538;27;20313;-77
2023/06/21 10:32:05;;;;;;;7.07;6.47;;;31.10;99.90;;;;;;5094472;27;20638;-77
2023/06/21 10:34:41;;;;;;;8.13;7.43;;;31.10;99.90;;;;;;5100442;27;20240;-77
2023/06/21 10:37:18;;;;;;;7.97;7.18;;;31.10;99.90;;;;;;5095396;28;20254;-76
2023/06/21 10:39:52;;;;;;;7.95;7.05;;;30.60;99.90;;;;;;5100012;27;20787;-77
2023/06/21 10:42:20;;;;;;;9.98;7.15;;;30.20;99.90;;;;;;5098151;27;20203;-77
2023/06/21 10:44:49;;;;;;;9.52;7.38;;;30.30;99.90;;;;;;5096589;27;20935;-77
2023/06/21 10:47:16;;;;;;;8.05;7.35;;;30.60;99.90;;;;;;5099651;27;20300;-77
2023/06/21 10:49:44;;;;;;;7.13;6.38;;;30.70;99.90;;;;;;5093338;27;20702;-76
2023/06/21 10:52:14;;;;;;;7.70;7.00;;;30.90;99.90;;;;;;5096301;27;20221;-78
2023/06/21 10:54:42;;;;;;;7.40;6.70;;;31.10;99.90;;;;;;5095621;27;20242;-77
2023/06/21 10:57:10;;;;;;;8.40;7.65;;;31.00;99.90;;;;;;5098106;27;20282;-77
2023/06/21 10:59:37;;;;;;;8.32;7.63;;;30.90;99.90;;;;;;5101134;27;20323;-76
2023/06/21 11:02:04;;;;;;;8.65;7.80;;;30.80;99.90;;;;;;5094916;27;20231;-77
2023/06/21 11:04:31;;;;;;;7.70;7.00;;;30.80;99.90;;;;;;5095097;27;20363;-77
2023/06/21 11:06:59;;;;;;;7.10;6.50;;;30.50;99.90;;;;;;5095964;27;20689;-77
2023/06/21 11:09:28;;;;;;;8.00;7.07;;;30.70;99.90;;;;;;5097715;27;20653;-77
2023/06/21 11:11:55;;;;;;;8.13;7.32;;;31.00;99.90;;;;;;5101526;27;20228;-76
2023/06/21 11:14:27;;;;;;;7.82;7.18;;;31.30;99.90;;;;;;5119813;27;20665;-79
2023/06/21 11:17:07;;;;;;;7.95;7.20;;;31.60;99.90;;;;;;5105099;27;20259;-77
2023/06/21 11:19:36;;;;;;;8.43;7.57;;;31.90;99.90;;;;;;5093841;27;20731;-78
2023/06/21 11:22:15;;;;;;;8.52;7.57;;;32.10;99.90;;;;;;5089849;27;20193;-77
2023/06/21 11:24:57;;;;;;;9.52;7.47;;;32.20;99.90;;;;;;5096681;27;20200;-77
2023/06/21 11:27:25;;;;;;;8.75;7.53;;;32.20;99.90;;;;;;5093073;27;20209;-77
2023/06/21 11:29:59;;;;;;;7.60;6.80;;;32.20;99.90;;;;;;5089975;27;20233;-77
2023/06/21 11:32:29;;;;;;;9.98;7.70;;;32.60;99.90;;;;;;5090969;27;21257;-77
2023/06/21 11:34:58;;;;;;;9.88;7.72;;;32.80;99.90;;;;;;5093429;27;20205;-78
2023/06/21 11:37:37;;;;;;;9.45;8.45;;;32.90;99.90;;;;;;5092672;27;20200;-77
2023/06/21 11:40:07;;;;;;;10.25;7.82;;;32.80;99.90;;;;;;5092896;27;20223;-77
2023/06/21 11:42:35;;;;;;;8.63;7.80;;;32.50;99.90;;;;;;5088081;27;20284;-77
2023/06/21 11:45:21;;;;;;;8.95;8.07;;;32.10;99.90;;;;;;5088227;27;20893;-76
2023/06/21 11:48:10;;;;;;;11.15;7.78;;;31.60;99.90;;;;;;5097600;27;20328;-77
2023/06/21 11:50:39;;;;;;;10.68;7.07;;;31.30;99.90;;;;;;5088634;27;20219;-77
2023/06/21 11:53:20;;;;;;;7.13;6.43;;;31.40;99.90;;;;;;5091651;27;20211;-77
2023/06/21 11:55:51;;;;;;;7.05;6.32;;;31.80;99.90;;;;;;5103043;27;20197;-78
2023/06/21 11:58:18;;;;;;;10.98;5.90;;;32.20;99.90;;;;;;5098276;27;20228;-77
2023/06/21 12:00:46;;;;;;;12.77;5.82;;;32.60;99.90;;;;;;5094979;27;20285;-77
2023/06/21 12:03:13;;;;;;;11.50;6.03;;;32.70;99.90;;;;;;5095631;27;20266;-77
2023/06/21 12:05:48;;;;;;;15.68;6.32;;;32.80;99.90;;;;;;5094203;27;20224;-77
2023/06/21 12:08:16;;;;;;;13.93;5.60;;;32.60;99.90;;;;;;5092715;27;20522;-77
2023/06/21 12:10:43;;;;;;;11.68;6.07;;;32.50;99.90;;;;;;5092371;27;20296;-77
2023/06/21 12:13:14;;;;;;;15.63;6.40;;;32.60;99.90;;;;;;5091586;27;20797;-77
2023/06/21 12:15:47;;;;;;;13.00;5.65;;;32.50;99.90;;;;;;5088604;27;20203;-77
2023/06/21 12:18:14;;;;;;;11.15;5.68;;;32.40;99.90;;;;;;5090523;28;20648;-75
2023/06/21 12:20:41;;;;;;;23.98;6.00;;;32.30;99.90;;;;;;5089530;27;20291;-78
2023/06/21 12:23:08;;;;;;;10.73;5.68;;;32.20;99.90;;;;;;5095317;27;20274;-78
2023/06/21 12:25:46;;;;;;;10.98;6.05;;;32.20;99.90;;;;;;5095362;27;20221;-76
2023/06/21 12:28:15;;;;;;;11.88;6.03;;;31.90;99.90;;;;;;5092598;27;20247;-77
2023/06/21 12:30:50;;;;;;;12.07;6.07;;;32.00;99.90;;;;;;5091740;27;20197;-76
2023/06/21 12:33:17;;;;;;;13.55;5.93;;;32.00;99.90;;;;;;5092536;27;20297;-77
2023/06/21 12:35:44;;;;;;;11.80;6.30;;;31.90;99.90;;;;;;5097186;27;21054;-78
2023/06/21 12:38:13;;;;;;;12.05;5.88;;;31.80;99.90;;;;;;5096815;27;20808;-77
2023/06/21 12:40:53;;;;;;;12.40;5.68;;;31.90;99.90;;;;;;5094988;27;20205;-77
2023/06/21 12:43:36;;;;;;;14.43;5.88;;;32.20;99.90;;;;;;5096573;27;20299;-78
2023/06/21 12:46:04;;;;;;;13.10;5.78;;;32.30;99.90;;;;;;5095778;27;20233;-78
2023/06/21 12:48:31;;;;;;;9.82;6.18;;;32.20;99.90;;;;;;5094552;27;20694;-80
2023/06/21 12:50:59;;;;;;;13.93;6.70;;;32.00;99.90;;;;;;5095104;27;20331;-78